Time;durP1;ratioP1;P1;durP2;ratioP2;P2;SDS_P1;SDS_P2;PMS_P1;PMS_P2;Temp;Humidity;BMP_temperature;BMP_pressure;BME280_temperature;BME280_humidity;BME280_pressure;Samples;Min_cycle;Max_cycle;Signal;HPM_P1;HPM_P2
2022/01/02 00:01:58;;;;;;;51.97;17.83;;;;;;;-0.04;97.29;94596.22;5045648;28;20045;-67
2022/01/02 00:04:29;;;;;;;34.17;14.80;;;;;;;-0.07;97.64;94594.19;5030949;28;20053;-66
2022/01/02 00:07:04;;;;;;;65.10;19.55;;;;;;;0.01;97.27;94597.94;5047739;28;20049;-66
2022/01/02 00:09:37;;;;;;;52.38;17.17;;;;;;;0.10;97.11;94594.06;5048648;28;20047;-66
2022/01/02 00:12:14;;;;;;;39.85;17.73;;;;;;;0.17;96.42;94582.72;5048631;28;20037;-66
2022/01/02 00:14:46;;;;;;;29.17;13.97;;;;;;;0.20;96.30;94584.72;5047992;28;20816;-66
2022/01/02 00:17:18;;;;;;;34.05;13.73;;;;;;;0.13;96.12;94584.50;5048328;28;20402;-65
2022/01/02 00:19:52;;;;;;;23.63;11.35;;;;;;;0.20;96.59;94582.03;5047430;28;20044;-66
2022/01/02 00:22:24;;;;;;;21.17;10.30;;;;;;;0.20;96.35;94579.31;5048395;28;20049;-65
2022/01/02 00:24:52;;;;;;;19.92;10.40;;;;;;;0.24;96.71;94587.56;5049030;28;20041;-66
2022/01/02 00:27:20;;;;;;;23.70;11.67;;;;;;;0.07;97.12;94585.81;5047138;28;20061;-66
2022/01/02 00:29:48;;;;;;;23.52;11.43;;;;;;;0.07;97.04;94577.72;5047728;28;20393;-66
2022/01/02 00:32:15;;;;;;;22.88;11.57;;;;;;;0.19;96.69;94570.44;5048154;28;20041;-65
2022/01/02 00:34:41;;;;;;;23.42;11.80;;;;;;;0.22;95.70;94573.59;5048596;28;20051;-66
2022/01/02 00:37:09;;;;;;;24.77;12.40;;;;;;;0.14;96.47;94586.06;5048412;28;20071;-67
2022/01/02 00:39:37;;;;;;;24.83;11.27;;;;;;;0.16;96.31;94581.13;5048366;28;20045;-66
2022/01/02 00:42:10;;;;;;;21.48;10.38;;;;;;;0.07;96.53;94586.59;5048646;28;20352;-67
2022/01/02 00:44:46;;;;;;;21.52;10.38;;;;;;;-0.01;96.31;94572.06;5047890;28;20461;-67
2022/01/02 00:47:20;;;;;;;21.42;11.20;;;;;;;0.06;95.67;94576.13;5050096;28;20052;-66
2022/01/02 00:50:03;;;;;;;25.20;12.45;;;;;;;0.06;94.65;94573.44;5052266;28;20060;-67
2022/01/02 00:52:33;;;;;;;23.33;11.03;;;;;;;0.05;93.98;94579.97;5051881;28;20052;-66
2022/01/02 00:55:02;;;;;;;24.88;12.80;;;;;;;0.05;94.29;94575.34;5052312;28;20045;-66
2022/01/02 00:57:40;;;;;;;21.00;11.40;;;;;;;-0.27;95.86;94574.22;5050641;28;20075;-66
2022/01/02 01:00:12;;;;;;;23.20;11.98;;;;;;;-0.24;96.33;94578.97;5052335;28;20051;-66
2022/01/02 01:02:48;;;;;;;25.23;12.32;;;;;;;-0.22;95.78;94564.03;5051285;28;20931;-65
2022/01/02 01:05:32;;;;;;;23.27;11.33;;;;;;;-0.21;95.45;94567.50;5051468;28;20052;-66
2022/01/02 01:08:02;;;;;;;20.27;10.52;;;;;;;-0.15;94.61;94557.31;5051898;28;20048;-66
2022/01/02 01:10:34;;;;;;;21.55;10.80;;;;;;;-0.14;94.65;94551.59;5051292;28;20052;-67
2022/01/02 01:13:04;;;;;;;25.90;11.65;;;;;;;-0.15;94.42;94563.47;5051857;28;20044;-67
2022/01/02 01:15:32;;;;;;;23.95;10.38;;;;;;;-0.14;94.43;94562.38;5051391;28;20374;-67
2022/01/02 01:18:01;;;;;;;27.57;13.67;;;;;;;-0.30;96.34;94570.28;5051975;28;20377;-66
2022/01/02 01:20:32;;;;;;;19.63;10.82;;;;;;;-0.39;97.10;94557.97;5051533;28;20048;-66
2022/01/02 01:22:58;;;;;;;19.40;9.98;;;;;;;-0.34;96.88;94561.28;5050500;28;20037;-66
2022/01/02 01:25:25;;;;;;;20.77;10.55;;;;;;;-0.28;95.99;94559.13;5051119;28;20047;-66
2022/01/02 01:27:54;;;;;;;23.58;10.27;;;;;;;-0.24;95.83;94555.47;5051711;28;20041;-67
2022/01/02 01:30:24;;;;;;;20.33;9.80;;;;;;;-0.44;96.23;94553.59;5051306;28;20041;-66
2022/01/02 01:32:52;;;;;;;18.85;8.90;;;;;;;-0.44;96.11;94556.28;5051573;28;20094;-67
2022/01/02 01:35:21;;;;;;;23.05;10.85;;;;;;;-0.38;95.86;94548.75;5049949;28;20053;-65
2022/01/02 01:37:49;;;;;;;39.28;15.75;;;;;;;-0.36;94.84;94554.59;5051485;28;20110;-66
2022/01/02 01:40:16;;;;;;;27.52;13.27;;;;;;;-0.37;94.00;94551.13;5050884;28;20045;-65
2022/01/02 01:42:56;;;;;;;26.37;11.03;;;;;;;-0.33;94.49;94552.03;5051511;28;20043;-66
2022/01/02 01:47:54;;;;;;;18.17;9.02;;;;;;;-0.38;95.38;94556.84;5051104;28;20041;-66
2022/01/02 01:50:24;;;;;;;18.08;8.68;;;;;;;-0.45;95.54;94558.16;5051015;28;20037;-66
2022/01/02 01:52:51;;;;;;;17.48;9.25;;;;;;;-0.44;95.44;94551.66;5050156;28;20040;-66
2022/01/02 01:55:18;;;;;;;16.27;8.57;;;;;;;-0.52;95.40;94547.13;5050334;28;20037;-66
2022/01/02 01:57:46;;;;;;;16.83;8.40;;;;;;;-0.47;94.85;94540.75;5050582;28;20048;-66
2022/01/02 02:00:18;;;;;;;23.88;10.55;;;;;;;-0.46;94.69;94545.03;5050194;28;20041;-65
2022/01/02 02:02:45;;;;;;;20.15;9.20;;;;;;;-0.44;95.22;94543.59;5045796;28;20379;-66
2022/01/02 02:05:13;;;;;;;15.45;7.75;;;;;;;-0.45;96.34;94549.28;5070691;28;20421;-65
2022/01/02 02:07:41;;;;;;;16.60;7.87;;;;;;;-0.47;97.00;94538.84;5050878;28;20045;-66
2022/01/02 02:10:15;;;;;;;17.40;8.30;;;;;;;-0.44;96.85;94546.28;5050857;28;20037;-66
2022/01/02 02:12:44;;;;;;;15.70;7.97;;;;;;;-0.43;96.08;94534.34;5048852;28;20772;-65
2022/01/02 02:15:15;;;;;;;17.33;8.88;;;;;;;-0.45;95.59;94535.81;5050264;28;20055;-65
2022/01/02 02:17:46;;;;;;;17.77;9.30;;;;;;;-0.47;95.71;94538.06;5050537;28;20040;-66
2022/01/02 02:20:18;;;;;;;18.63;9.27;;;;;;;-0.55;96.20;94530.81;5050022;28;20053;-65
2022/01/02 02:22:48;;;;;;;16.58;8.80;;;;;;;-0.64;97.14;94525.50;5050629;28;20041;-67
2022/01/02 02:25:16;;;;;;;18.58;9.75;;;;;;;-0.58;96.38;94526.88;5049936;28;20438;-65
2022/01/02 02:27:51;;;;;;;17.33;8.48;;;;;;;-0.56;95.93;94524.66;5050566;28;20052;-66
2022/01/02 02:30:19;;;;;;;16.25;8.32;;;;;;;-0.54;95.62;94532.38;5049735;28;20055;-66
2022/01/02 02:32:47;;;;;;;15.83;8.23;;;;;;;-0.56;95.41;94526.53;5050557;28;20051;-66
2022/01/02 02:35:14;;;;;;;17.27;8.63;;;;;;;-0.63;96.59;94524.38;5050165;28;20033;-66
2022/01/02 02:37:43;;;;;;;18.00;8.98;;;;;;;-0.66;96.06;94522.34;5050540;28;20055;-66
2022/01/02 02:40:12;;;;;;;16.58;8.52;;;;;;;-0.68;95.33;94517.28;5050011;28;20043;-67
2022/01/02 02:50:55;;;;;;;14.70;7.75;;;;;;;-0.77;95.42;94513.06;5049343;28;20884;-66
2022/01/02 02:53:22;;;;;;;14.20;6.72;;;;;;;-0.78;95.15;94501.53;5049483;28;20060;-66
2022/01/02 02:55:55;;;;;;;14.43;6.88;;;;;;;-0.74;95.12;94507.03;5049933;28;20358;-66
2022/01/02 02:58:41;;;;;;;14.97;7.83;;;;;;;-0.78;94.39;94504.22;5049361;28;20045;-66
2022/01/02 03:01:11;;;;;;;12.40;6.70;;;;;;;-0.77;94.90;94494.22;5048714;28;20070;-66
2022/01/02 03:03:39;;;;;;;14.75;7.55;;;;;;;-0.92;95.99;94496.38;5049519;28;20493;-66
2022/01/02 03:06:07;;;;;;;11.38;6.53;;;;;;;-0.90;96.37;94494.16;5049675;28;20059;-66
2022/01/02 03:08:35;;;;;;;12.82;6.65;;;;;;;-0.86;95.31;94486.22;5048148;28;20045;-66
2022/01/02 03:11:03;;;;;;;12.73;6.77;;;;;;;-0.91;95.51;94484.47;5048257;28;20044;-66
2022/01/02 03:13:30;;;;;;;12.15;6.20;;;;;;;-0.90;95.01;94491.47;5049145;28;20044;-66
2022/01/02 03:15:56;;;;;;;14.68;6.63;;;;;;;-0.91;95.43;94489.09;5049650;28;20041;-65
2022/01/02 03:18:23;;;;;;;14.88;7.13;;;;;;;-0.99;96.72;94485.34;5048850;28;20041;-65
2022/01/02 03:20:50;;;;;;;14.68;7.18;;;;;;;-0.97;96.38;94476.94;5049710;28;20046;-65
2022/01/02 03:23:17;;;;;;;13.77;6.80;;;;;;;-1.08;96.57;94471.16;5048013;28;20098;-65
2022/01/02 03:25:43;;;;;;;12.48;6.45;;;;;;;-1.10;96.78;94478.78;5049682;28;20048;-66
2022/01/02 03:28:10;;;;;;;14.57;7.22;;;;;;;-1.02;96.42;94481.41;5048188;28;20049;-66
2022/01/02 03:30:37;;;;;;;11.85;6.32;;;;;;;-1.02;96.20;94473.31;5048150;28;20111;-65
2022/01/02 03:33:04;;;;;;;13.38;6.60;;;;;;;-1.01;95.28;94472.22;5042693;28;20068;-66
2022/01/02 03:35:31;;;;;;;14.00;6.60;;;;;;;-1.03;95.03;94468.25;5034194;28;20485;-66
2022/01/02 03:37:57;;;;;;;13.38;6.65;;;;;;;-0.99;94.63;94465.69;5049400;28;20063;-66
2022/01/02 03:40:24;;;;;;;13.45;6.13;;;;;;;-0.99;94.89;94463.78;5048732;28;20041;-65
2022/01/02 03:42:51;;;;;;;13.63;6.55;;;;;;;-1.05;95.55;94460.50;5049318;28;20041;-66
2022/01/02 03:45:18;;;;;;;12.05;6.60;;;;;;;-1.09;95.93;94453.41;5047183;28;20059;-65
2022/01/02 03:47:45;;;;;;;14.40;6.53;;;;;;;-1.19;96.56;94451.88;5049260;28;20049;-66
2022/01/02 03:50:14;;;;;;;14.73;6.95;;;;;;;-1.14;96.84;94445.53;5048935;28;20037;-66
2022/01/02 03:52:41;;;;;;;13.45;6.75;;;;;;;-1.15;96.33;94442.03;5048729;28;20512;-66
2022/01/02 03:55:09;;;;;;;11.73;6.15;;;;;;;-1.12;96.39;94437.91;5048978;28;20049;-66
2022/01/02 03:57:37;;;;;;;12.73;6.25;;;;;;;-1.09;96.45;94427.25;5048844;28;20041;-66
2022/01/02 04:00:06;;;;;;;13.17;6.27;;;;;;;-1.10;96.50;94431.06;5048929;28;20057;-67
2022/01/02 04:02:34;;;;;;;13.40;7.30;;;;;;;-1.16;97.58;94424.31;5048648;28;20037;-65
2022/01/02 04:05:01;;;;;;;13.55;7.60;;;;;;;-1.14;97.58;94421.28;5049143;28;20500;-66
2022/01/02 04:07:28;;;;;;;15.20;7.10;;;;;;;-1.13;97.96;94420.16;5048564;28;20505;-66
2022/01/02 04:09:56;;;;;;;12.90;6.88;;;;;;;-1.08;97.58;94418.06;5048928;28;20167;-66
2022/01/02 04:12:23;;;;;;;13.97;6.80;;;;;;;-1.08;97.49;94409.19;5048427;28;20052;-65
2022/01/02 04:14:49;;;;;;;13.77;6.82;;;;;;;-1.06;97.42;94401.59;5048992;28;20049;-66
2022/01/02 04:17:16;;;;;;;13.48;6.63;;;;;;;-1.06;97.62;94402.34;5046900;28;20049;-65
2022/01/02 04:19:42;;;;;;;12.90;6.45;;;;;;;-1.04;97.17;94396.66;5049149;28;20051;-66
2022/01/02 04:22:09;;;;;;;13.30;6.70;;;;;;;-1.06;97.57;94383.50;5050955;28;20052;-66
2022/01/02 04:24:36;;;;;;;13.97;6.30;;;;;;;-1.13;97.81;94383.22;5052295;28;20048;-66
2022/01/02 04:27:03;;;;;;;15.25;6.72;;;;;;;-1.18;98.19;94378.06;5052961;28;20127;-66
2022/01/02 04:29:30;;;;;;;13.93;7.35;;;;;;;-1.13;98.09;94377.84;5052116;28;20056;-66
2022/01/02 04:31:57;;;;;;;12.77;6.40;;;;;;;-1.13;97.91;94374.38;5052849;28;20037;-66
2022/01/02 04:34:24;;;;;;;12.95;6.43;;;;;;;-1.13;98.03;94367.06;5052215;28;20071;-66
2022/01/02 04:36:51;;;;;;;15.40;7.20;;;;;;;-1.10;97.33;94379.13;5052809;28;20071;-65
2022/01/02 04:39:17;;;;;;;13.52;6.78;;;;;;;-1.08;96.86;94379.56;5052014;28;20114;-65
2022/01/02 04:41:44;;;;;;;12.20;6.00;;;;;;;-1.07;97.34;94375.75;5052784;28;20407;-66
2022/01/02 04:44:11;;;;;;;12.65;6.10;;;;;;;-1.07;97.74;94376.53;5052392;28;20045;-66
2022/01/02 04:46:38;;;;;;;12.98;6.40;;;;;;;-1.10;97.69;94382.59;5051812;28;20354;-66
2022/01/02 04:49:04;;;;;;;12.10;6.07;;;;;;;-1.16;98.00;94383.13;5052454;28;20531;-66
2022/01/02 04:51:31;;;;;;;13.00;6.22;;;;;;;-1.10;98.05;94385.28;5050948;28;20061;-65
2022/01/02 04:53:58;;;;;;;14.02;7.00;;;;;;;-1.10;97.28;94376.41;5052502;28;20490;-66
2022/01/02 04:56:25;;;;;;;11.75;6.10;;;;;;;-1.09;97.15;94384.16;5051571;28;20509;-66
2022/01/02 04:58:51;;;;;;;10.95;5.93;;;;;;;-1.10;96.91;94373.72;5052528;28;20437;-65
2022/01/02 05:01:19;;;;;;;11.90;6.20;;;;;;;-1.17;97.29;94370.75;5051600;28;20055;-65
2022/01/02 05:03:46;;;;;;;13.85;6.88;;;;;;;-1.18;97.37;94372.69;5052206;28;20489;-66
2022/01/02 05:06:13;;;;;;;12.45;6.82;;;;;;;-1.19;96.71;94376.47;5033650;28;20053;-65
2022/01/02 05:08:44;;;;;;;12.40;6.18;;;;;;;-1.23;96.92;94370.97;5052359;28;20045;-66
2022/01/02 05:11:13;;;;;;;14.23;6.80;;;;;;;-1.29;96.97;94369.59;5051756;28;20044;-66
2022/01/02 05:13:41;;;;;;;15.27;6.87;;;;;;;-1.30;97.23;94373.41;5050924;28;20355;-65
2022/01/02 05:16:07;;;;;;;13.52;6.47;;;;;;;-1.29;97.54;94371.50;5051730;28;20045;-66
2022/01/02 05:18:34;;;;;;;14.88;7.13;;;;;;;-1.30;96.58;94375.31;5051215;28;20040;-65
2022/01/02 05:21:01;;;;;;;13.93;7.13;;;;;;;-1.33;96.58;94379.44;5050765;28;20041;-65
2022/01/02 05:23:29;;;;;;;15.57;7.05;;;;;;;-1.32;96.17;94364.09;5051233;28;20045;-65
2022/01/02 05:25:59;;;;;;;16.60;7.50;;;;;;;-1.34;96.92;94371.69;5050518;28;20037;-66
2022/01/02 05:28:26;;;;;;;13.77;6.80;;;;;;;-1.32;96.19;94370.25;5051238;28;20040;-65
2022/01/02 05:30:53;;;;;;;14.65;7.38;;;;;;;-1.30;96.42;94373.41;5051645;28;20523;-66
2022/01/02 05:33:20;;;;;;;14.63;6.70;;;;;;;-1.38;96.98;94381.56;5043607;28;20053;-65
2022/01/02 05:35:46;;;;;;;13.05;6.35;;;;;;;-1.31;97.05;94371.03;5042264;28;20075;-65
2022/01/02 05:38:15;;;;;;;12.73;6.60;;;;;;;-1.32;96.77;94372.94;5031052;28;20041;-65
2022/01/02 05:40:42;;;;;;;12.75;6.50;;;;;;;-1.34;96.94;94371.69;5031482;28;20048;-65
2022/01/02 05:43:09;;;;;;;13.45;6.53;;;;;;;-1.33;96.52;94368.66;5031521;28;20056;-66
2022/01/02 05:45:35;;;;;;;14.18;6.82;;;;;;;-1.31;96.43;94361.06;5031168;28;20091;-66
2022/01/02 05:48:05;;;;;;;15.32;7.10;;;;;;;-1.30;95.98;94369.94;5031386;28;20047;-66
2022/01/02 05:50:32;;;;;;;13.37;6.40;;;;;;;-1.32;96.02;94367.56;5030898;28;20096;-66
2022/01/02 05:52:59;;;;;;;12.90;6.28;;;;;;;-1.31;95.86;94361.06;5031510;28;20041;-66
2022/01/02 05:55:25;;;;;;;14.35;6.82;;;;;;;-1.32;96.30;94351.41;5062360;28;20052;-66
2022/01/02 05:57:52;;;;;;;14.57;7.40;;;;;;;-1.38;96.37;94347.34;5031205;28;20052;-66
2022/01/02 06:00:19;;;;;;;13.40;6.82;;;;;;;-1.40;96.28;94341.50;5030842;28;20051;-65
2022/01/02 06:02:51;;;;;;;14.83;7.00;;;;;;;-1.36;96.14;94341.63;5031085;28;20037;-66
2022/01/02 06:05:18;;;;;;;13.23;6.20;;;;;;;-1.34;96.17;94350.94;5031642;28;20088;-65
2022/01/02 06:07:44;;;;;;;15.00;7.30;;;;;;;-1.41;96.27;94348.78;5051068;28;20049;-66
2022/01/02 06:10:11;;;;;;;15.63;7.35;;;;;;;-1.52;97.04;94352.97;5049152;28;20043;-66
2022/01/02 06:12:38;;;;;;;15.50;7.70;;;;;;;-1.53;97.45;94342.53;5048515;28;20424;-66
2022/01/02 06:15:06;;;;;;;15.80;7.67;;;;;;;-1.50;96.96;94341.91;5050664;28;20063;-66
2022/01/02 06:17:33;;;;;;;15.25;7.68;;;;;;;-1.46;96.27;94343.59;5049974;28;20069;-66
2022/01/02 06:20:00;;;;;;;14.93;7.20;;;;;;;-1.45;96.52;94345.19;5051113;28;20040;-66
2022/01/02 06:22:27;;;;;;;13.30;6.40;;;;;;;-1.44;95.51;94335.19;5050133;28;20490;-66
2022/01/02 06:24:54;;;;;;;14.23;6.80;;;;;;;-1.41;96.08;94334.53;5050569;28;20502;-66
2022/01/02 06:27:21;;;;;;;14.27;6.70;;;;;;;-1.42;96.15;94333.75;5050125;28;20063;-66
2022/01/02 06:29:48;;;;;;;13.25;6.43;;;;;;;-1.39;96.76;94339.59;5050734;28;20045;-66
2022/01/02 06:32:14;;;;;;;12.07;6.60;;;;;;;-1.43;97.37;94340.25;5048548;28;20483;-65
2022/01/02 06:34:41;;;;;;;12.73;6.53;;;;;;;-1.43;97.49;94337.56;5050615;28;20055;-66
2022/01/02 06:37:08;;;;;;;14.90;7.18;;;;;;;-1.39;97.33;94339.59;5050354;28;20037;-65
2022/01/02 06:39:35;;;;;;;17.17;7.87;;;;;;;-1.39;97.65;94337.66;5049699;28;20041;-66
2022/01/02 06:42:02;;;;;;;17.05;7.85;;;;;;;-1.37;97.20;94332.75;5050507;28;20040;-65
2022/01/02 06:44:29;;;;;;;16.55;8.23;;;;;;;-1.38;96.85;94325.03;5049378;28;20040;-65
2022/01/02 06:46:55;;;;;;;14.30;6.75;;;;;;;-1.41;96.63;94323.75;5049994;28;20041;-66
2022/01/02 06:49:23;;;;;;;14.45;7.10;;;;;;;-1.43;96.70;94328.69;5049453;28;20102;-65
2022/01/02 06:51:49;;;;;;;15.27;6.80;;;;;;;-1.42;96.55;94322.19;5048387;28;20404;-66
2022/01/02 06:54:16;;;;;;;13.90;6.95;;;;;;;-1.38;96.72;94320.41;5037703;28;20397;-65
2022/01/02 06:56:43;;;;;;;16.90;6.97;;;;;;;-1.45;96.73;94320.94;5046551;28;20041;-65
2022/01/02 06:59:10;;;;;;;14.65;7.10;;;;;;;-1.45;96.54;94318.25;5081909;28;20036;-65
2022/01/02 07:01:36;;;;;;;15.20;8.00;;;;;;;-1.49;96.48;94322.72;5049000;28;20325;-65
2022/01/02 07:04:03;;;;;;;14.53;7.37;;;;;;;-1.44;96.79;94314.44;5081712;28;20040;-66
2022/01/02 07:06:30;;;;;;;17.65;8.20;;;;;;;-1.34;96.81;94315.94;5049136;28;20044;-66
2022/01/02 07:08:57;;;;;;;17.88;8.40;;;;;;;-1.23;96.83;94316.31;5049845;28;20040;-66
2022/01/02 07:11:23;;;;;;;14.80;7.57;;;;;;;-1.04;96.92;94315.84;5049246;28;20528;-66
2022/01/02 07:13:50;;;;;;;17.10;8.20;;;;;;;-0.85;96.59;94316.09;5049485;28;20057;-66
2022/01/02 07:16:17;;;;;;;15.43;7.47;;;;;;;-0.75;96.33;94324.91;5048824;28;20037;-66
2022/01/02 07:18:44;;;;;;;15.85;7.93;;;;;;;-0.63;96.59;94319.53;5048356;28;20037;-66
2022/01/02 07:21:10;;;;;;;14.77;7.28;;;;;;;-0.66;95.83;94321.00;5049651;28;20047;-66
2022/01/02 07:23:37;;;;;;;14.25;7.28;;;;;;;-0.69;95.88;94316.25;5048217;28;20416;-66
2022/01/02 07:26:04;;;;;;;14.98;7.60;;;;;;;-0.62;96.31;94315.72;5049837;28;20039;-67
2022/01/02 07:28:33;;;;;;;14.53;8.13;;;;;;;-0.48;96.20;94308.09;5048975;28;20061;-67
2022/01/02 07:31:00;;;;;;;13.38;7.45;;;;;;;-0.46;95.72;94292.38;5049320;28;20051;-66
2022/01/02 07:33:28;;;;;;;18.83;8.25;;;;;;;-0.43;95.48;94297.09;5048858;28;20055;-66
2022/01/02 07:35:54;;;;;;;16.45;7.72;;;;;;;-0.29;95.56;94301.38;5049775;28;20037;-66
2022/01/02 07:38:30;;;;;;;15.32;7.03;;;;;;;-0.16;95.45;94305.66;5048841;28;20057;-67
2022/01/02 07:40:57;;;;;;;14.43;6.80;;;;;;;-0.21;95.73;94303.94;5049493;28;20041;-67
2022/01/02 07:43:24;;;;;;;14.43;6.95;;;;;;;-0.22;96.17;94312.41;5048769;28;20528;-67
2022/01/02 07:45:51;;;;;;;14.45;7.68;;;;;;;-0.10;96.23;94308.88;5049496;28;20102;-67
2022/01/02 07:48:18;;;;;;;15.57;7.20;;;;;;;-0.06;95.38;94309.78;5048724;28;20075;-66
2022/01/02 07:50:44;;;;;;;15.88;7.88;;;;;;;0.14;95.61;94305.38;5048098;28;20056;-67
2022/01/02 07:53:11;;;;;;;17.50;7.37;;;;;;;0.17;94.65;94304.72;5040587;28;20048;-67
2022/01/02 07:55:38;;;;;;;15.68;7.80;;;;;;;0.29;93.94;94312.00;5028288;28;20833;-66
2022/01/02 07:58:09;;;;;;;15.05;7.20;;;;;;;0.36;93.93;94313.00;5033245;28;20053;-67
2022/01/02 08:00:36;;;;;;;15.45;7.40;;;;;;;0.48;93.19;94309.47;5031472;28;20044;-67
2022/01/02 08:03:02;;;;;;;13.77;6.72;;;;;;;0.42;93.32;94312.75;5033656;28;20476;-66
2022/01/02 08:05:29;;;;;;;14.00;6.70;;;;;;;0.52;93.66;94309.59;5035595;28;20044;-66
2022/01/02 08:07:58;;;;;;;13.02;6.63;;;;;;;0.56;93.06;94307.78;5053262;28;20068;-66
2022/01/02 08:10:26;;;;;;;13.70;6.95;;;;;;;0.82;92.82;94322.78;5052384;28;20075;-66
2022/01/02 08:12:53;;;;;;;16.35;7.80;;;;;;;0.84;92.32;94315.91;5053354;28;20045;-66
2022/01/02 08:15:21;;;;;;;16.90;8.43;;;;;;;0.95;91.88;94319.69;5052457;28;20049;-66
2022/01/02 08:17:48;;;;;;;42.93;16.13;;;;;;;0.86;91.86;94307.47;5053224;28;20514;-67
2022/01/02 08:20:14;;;;;;;27.92;12.93;;;;;;;0.86;92.02;94316.34;5052757;28;20047;-65
2022/01/02 08:22:41;;;;;;;15.77;8.43;;;;;;;1.07;91.83;94316.16;5051433;28;20390;-66
2022/01/02 08:25:08;;;;;;;33.80;15.10;;;;;;;0.99;91.37;94314.38;5052931;28;20071;-66
2022/01/02 08:27:35;;;;;;;31.05;15.13;;;;;;;1.05;91.11;94310.31;5051739;28;20041;-66
2022/01/02 08:30:03;;;;;;;19.60;9.87;;;;;;;1.00;90.88;94310.53;5052784;28;20039;-67
2022/01/02 08:32:30;;;;;;;23.05;11.20;;;;;;;1.33;90.63;94310.28;5051886;28;20055;-66
2022/01/02 08:34:56;;;;;;;25.48;12.68;;;;;;;2.05;87.87;94311.22;5052836;28;20041;-67
2022/01/02 08:37:23;;;;;;;34.08;15.45;;;;;;;2.61;84.97;94308.22;5052308;28;20063;-67
2022/01/02 08:39:50;;;;;;;30.67;15.38;;;;;;;3.71;81.30;94299.84;5051587;28;20052;-67
2022/01/02 08:42:17;;;;;;;17.40;9.23;;;;;;;4.95;77.53;94312.88;5052372;28;20037;-68
2022/01/02 08:44:44;;;;;;;19.23;10.07;;;;;;;5.90;73.90;94300.69;5052471;28;20048;-67
2022/01/02 08:47:11;;;;;;;16.60;8.98;;;;;;;7.42;69.77;94294.94;5052559;28;20037;-67
2022/01/02 08:49:39;;;;;;;28.23;15.30;;;;;;;7.12;67.06;94306.97;5050889;28;20483;-68
2022/01/02 08:52:06;;;;;;;16.95;9.63;;;;;;;7.46;66.73;94297.69;5051325;28;20505;-68
2022/01/02 08:54:32;;;;;;;18.53;11.20;;;;;;;7.67;66.03;94302.44;5040394;28;20052;-68
2022/01/02 08:57:02;;;;;;;39.85;21.42;;;;;;;8.60;62.72;94294.28;5049302;28;20055;-68
2022/01/02 08:59:28;;;;;;;55.95;28.23;;;;;;;8.94;62.70;94296.56;5064259;28;20051;-70
2022/01/02 09:01:56;;;;;;;61.38;28.95;;;;;;;9.44;59.14;94304.56;5033300;28;20045;-67
2022/01/02 09:04:23;;;;;;;27.55;14.07;;;;;;;9.00;60.59;94292.22;5031911;28;20045;-67
2022/01/02 09:06:51;;;;;;;23.03;12.20;;;;;;;7.90;63.16;94296.59;5046222;28;20358;-68
2022/01/02 09:09:18;;;;;;;23.08;13.18;;;;;;;6.89;66.45;94296.31;5050551;28;20151;-66
2022/01/02 09:11:45;;;;;;;19.27;10.98;;;;;;;6.24;68.74;94305.25;5052931;28;20045;-68
2022/01/02 09:14:12;;;;;;;24.67;12.98;;;;;;;5.14;72.96;94315.47;5052109;28;20049;-67
2022/01/02 09:16:40;;;;;;;58.08;32.55;;;;;;;4.35;75.20;94309.00;5051058;28;20901;-67
2022/01/02 09:19:07;;;;;;;33.53;17.37;;;;;;;4.40;76.06;94313.31;5051799;28;20244;-67
2022/01/02 09:21:34;;;;;;;23.65;11.15;;;;;;;4.27;77.94;94320.91;5051386;28;20138;-66
2022/01/02 09:24:01;;;;;;;21.58;10.75;;;;;;;3.80;79.98;94313.94;5051851;28;20044;-67
2022/01/02 09:26:28;;;;;;;32.60;17.88;;;;;;;3.73;80.22;94316.56;5051421;28;20044;-66
2022/01/02 09:28:54;;;;;;;26.27;11.70;;;;;;;3.91;81.17;94325.00;5051995;28;20053;-67
2022/01/02 09:31:21;;;;;;;22.77;11.07;;;;;;;4.29;79.84;94325.97;5051011;28;20045;-66
2022/01/02 09:33:49;;;;;;;19.13;10.30;;;;;;;4.20;79.24;94335.19;5051803;28;20051;-67
2022/01/02 09:36:17;;;;;;;17.90;9.90;;;;;;;4.08;79.84;94342.72;5051259;28;20094;-66
2022/01/02 09:38:44;;;;;;;18.75;10.65;;;;;;;5.40;77.35;94333.63;5051225;28;20041;-67
2022/01/02 09:41:10;;;;;;;16.42;9.38;;;;;;;8.05;70.37;94325.53;5051523;28;20105;-67
2022/01/02 09:43:37;;;;;;;15.27;9.50;;;;;;;12.39;55.98;94330.69;5049267;28;20041;-67
2022/01/02 09:46:04;;;;;;;27.02;13.20;;;;;;;13.71;51.66;94331.50;5051684;28;20090;-68
2022/01/02 09:48:31;;;;;;;20.85;11.35;;;;;;;17.26;44.05;94321.09;5050886;28;20109;-68
2022/01/02 09:50:58;;;;;;;25.65;14.07;;;;;;;19.01;42.91;94324.06;5051665;28;20072;-68
2022/01/02 09:53:25;;;;;;;18.73;11.27;;;;;;;18.75;37.45;94315.94;5050623;28;20049;-69
2022/01/02 09:55:54;;;;;;;13.03;8.80;;;;;;;18.83;38.38;94310.91;5051233;28;20040;-68
2022/01/02 09:58:22;;;;;;;13.43;9.50;;;;;;;19.61;34.37;94304.00;5050840;28;20494;-68
2022/01/02 10:00:48;;;;;;;11.50;7.13;;;;;;;16.80;39.03;94298.44;5051370;28;20041;-69
2022/01/02 10:03:17;;;;;;;16.92;9.07;;;;;;;15.26;43.04;94307.34;5050989;28;20045;-68
2022/01/02 10:05:59;;;;;;;14.73;7.50;;;;;;;13.98;44.61;94307.28;5050966;28;20045;-68
2022/01/02 10:08:36;;;;;;;14.30;7.33;;;;;;;13.33;47.32;94290.53;5050276;28;20049;-67
2022/01/02 10:11:22;;;;;;;12.98;7.57;;;;;;;12.85;47.01;94286.28;5051298;28;20051;-68
2022/01/02 10:14:04;;;;;;;12.13;7.63;;;;;;;11.14;53.48;94291.09;5049630;28;21691;-67
2022/01/02 10:16:32;;;;;;;15.13;9.57;;;;;;;10.26;58.74;94295.06;5050317;28;20041;-67
2022/01/02 10:19:17;;;;;;;14.25;9.23;;;;;;;9.17;62.47;94301.53;5036855;28;20103;-67
2022/01/02 10:21:52;;;;;;;13.57;8.30;;;;;;;9.73;60.14;94294.22;5045388;28;20490;-67
2022/01/02 10:24:22;;;;;;;13.77;8.45;;;;;;;8.96;63.28;94296.94;5048860;28;20041;-67
2022/01/02 10:27:11;;;;;;;14.15;8.88;;;;;;;10.20;59.53;94278.25;5050696;28;20221;-67
2022/01/02 10:29:40;;;;;;;33.85;20.17;;;;;;;10.77;58.11;94276.19;5049385;28;20717;-67
2022/01/02 10:32:27;;;;;;;24.25;13.10;;;;;;;11.46;55.21;94284.44;5050499;28;20037;-67
2022/01/02 10:35:10;;;;;;;17.67;7.50;;;;;;;11.86;52.58;94287.44;5049665;28;20037;-67
2022/01/02 10:37:37;;;;;;;16.30;9.50;;;;;;;12.05;51.43;94289.53;5049969;28;20052;-67
2022/01/02 10:40:22;;;;;;;13.73;7.00;;;;;;;11.36;53.13;94299.88;5049283;28;20049;-67
2022/01/02 10:42:49;;;;;;;11.95;6.80;;;;;;;10.37;55.59;94278.53;5049464;28;21750;-67
2022/01/02 10:45:50;;;;;;;10.63;6.10;;;;;;;9.29;57.50;94308.53;5049814;28;20052;-67
2022/01/02 10:48:34;;;;;;;18.53;10.50;;;;;;;9.17;58.29;94313.28;5050259;28;20043;-67
2022/01/02 10:51:16;;;;;;;10.75;5.93;;;;;;;8.61;59.19;94298.56;5048978;28;20047;-68
2022/01/02 10:53:55;;;;;;;12.43;6.50;;;;;;;8.28;61.20;94294.28;5047975;28;20414;-67
2022/01/02 10:56:26;;;;;;;15.30;6.70;;;;;;;8.38;61.53;94290.75;5049605;28;20037;-67
2022/01/02 10:58:58;;;;;;;11.93;5.50;;;;;;;8.27;60.96;94282.56;5050248;28;20048;-67
2022/01/02 11:01:25;;;;;;;11.53;6.80;;;;;;;8.47;61.84;94291.19;5049319;28;20049;-67
2022/01/02 11:03:52;;;;;;;12.27;7.03;;;;;;;8.22;62.89;94279.44;5050119;28;20043;-67
2022/01/02 11:06:32;;;;;;;12.52;7.43;;;;;;;8.52;63.56;94300.94;5049393;28;20045;-66
2022/01/02 11:08:59;;;;;;;16.73;9.40;;;;;;;8.03;66.33;94316.13;5049770;28;20052;-67
2022/01/02 11:11:27;;;;;;;13.82;8.00;;;;;;;7.24;69.51;94321.41;5048067;28;20090;-67
2022/01/02 11:13:56;;;;;;;13.77;7.80;;;;;;;7.29;70.25;94323.78;5049589;28;20052;-67
2022/01/02 11:16:23;;;;;;;12.40;7.40;;;;;;;7.35;69.86;94303.91;5049322;28;20037;-67
2022/01/02 11:18:51;;;;;;;11.55;6.75;;;;;;;8.12;67.51;94292.72;5039352;28;20044;-67
2022/01/02 11:21:20;;;;;;;13.00;7.70;;;;;;;8.34;66.46;94279.03;5038916;28;20049;-66
2022/01/02 11:24:01;;;;;;;15.68;8.88;;;;;;;8.08;66.51;94275.53;5029575;28;20663;-67
2022/01/02 11:26:37;;;;;;;13.70;8.80;;;;;;;8.04;67.16;94279.44;5029282;28;20047;-67
2022/01/02 11:29:13;;;;;;;13.57;7.38;;;;;;;8.11;65.78;94293.91;5029098;28;20038;-64
2022/01/02 11:31:43;;;;;;;13.10;7.65;;;;;;;8.45;64.48;94300.94;5039551;28;20040;-67
2022/01/02 11:34:27;;;;;;;15.45;8.15;;;;;;;8.34;66.59;94300.91;5048137;28;20240;-67
2022/01/02 11:37:13;;;;;;;17.95;10.20;;;;;;;8.44;66.38;94319.31;5048583;28;20060;-67
2022/01/02 11:39:56;;;;;;;16.73;9.70;;;;;;;8.37;65.55;94311.06;5048258;28;21620;-67
2022/01/02 11:42:46;;;;;;;17.65;8.85;;;;;;;8.39;66.31;94322.38;5049157;28;20044;-67
2022/01/02 11:45:22;;;;;;;13.63;8.15;;;;;;;8.76;64.72;94321.22;5035481;28;20048;-66
2022/01/02 11:47:49;;;;;;;11.27;6.25;;;;;;;8.46;65.74;94329.84;5049601;28;20101;-67